Time;durP1;ratioP1;P1;durP2;ratioP2;P2;SDS_P1;SDS_P2;PMS_P1;PMS_P2;Temp;Humidity;BMP_temperature;BMP_pressure;BME280_temperature;BME280_humidity;BME280_pressure;Samples;Min_cycle;Max_cycle;Signal;HPM_P1;HPM_P2
2023/03/07 00:00:39;;;;;;;8.73;6.20;;;;;;;;;;5041124;28;19916;-77
2023/03/07 00:03:07;;;;;;;9.83;5.87;;;;;;;;;;5055661;28;20025;-76
2023/03/07 00:05:33;;;;;;;9.87;6.63;;;;;;;;;;5053515;28;20117;-76
2023/03/07 00:07:59;;;;;;;11.40;6.73;;;;;;;;;;5057224;28;20036;-76
2023/03/07 00:10:25;;;;;;;10.30;6.33;;;;;;;;;;5036574;28;20025;-76
2023/03/07 00:12:54;;;;;;;10.23;6.67;;;;;;;;;;5053724;28;20048;-76
2023/03/07 00:15:22;;;;;;;8.43;6.10;;;;;;;;;;5055806;28;20033;-77
2023/03/07 00:17:48;;;;;;;8.70;5.63;;;;;;;;;;5053613;28;20032;-76
2023/03/07 00:20:14;;;;;;;9.57;6.03;;;;;;;;;;5055348;28;20043;-76
2023/03/07 00:22:41;;;;;;;8.73;6.13;;;;;;;;;;5054311;28;20036;-74
2023/03/07 00:25:07;;;;;;;8.30;5.90;;;;;;;;;;5037739;28;20104;-76
2023/03/07 00:27:33;;;;;;;11.90;7.03;;;;;;;;;;5039684;28;20029;-76
2023/03/07 00:30:00;;;;;;;9.30;6.00;;;;;;;;;;5042361;28;20025;-76
2023/03/07 00:32:26;;;;;;;7.47;5.07;;;;;;;;;;5039511;28;20040;-75
2023/03/07 00:34:52;;;;;;;8.07;5.83;;;;;;;;;;5038361;28;20040;-76
2023/03/07 00:37:18;;;;;;;7.97;5.53;;;;;;;;;;5054825;28;20118;-76
2023/03/07 00:39:44;;;;;;;10.73;5.67;;;;;;;;;;5054935;28;20067;-76
2023/03/07 00:42:10;;;;;;;10.13;6.07;;;;;;;;;;5038624;28;20132;-76
2023/03/07 00:44:36;;;;;;;8.37;5.50;;;;;;;;;;5054088;28;20025;-76
2023/03/07 00:47:07;;;;;;;7.87;5.13;;;;;;;;;;5038043;28;20056;-76
2023/03/07 00:49:35;;;;;;;9.83;6.10;;;;;;;;;;5053184;28;20029;-76
2023/03/07 00:52:01;;;;;;;7.60;5.40;;;;;;;;;;5038753;28;20036;-76
2023/03/07 00:54:27;;;;;;;6.43;4.50;;;;;;;;;;5043164;28;20091;-76
2023/03/07 00:56:53;;;;;;;8.43;5.43;;;;;;;;;;5052413;28;20037;-76
2023/03/07 00:59:19;;;;;;;7.30;5.37;;;;;;;;;;5036849;28;20468;-76
2023/03/07 01:01:45;;;;;;;6.87;4.93;;;;;;;;;;5045169;28;20029;-76
2023/03/07 01:04:11;;;;;;;6.80;4.43;;;;;;;;;;5038758;28;20032;-76
2023/03/07 01:06:37;;;;;;;7.60;4.70;;;;;;;;;;5053398;28;20048;-76
2023/03/07 01:09:06;;;;;;;8.23;4.93;;;;;;;;;;5053188;28;20124;-75
2023/03/07 01:11:35;;;;;;;7.97;5.60;;;;;;;;;;5047056;28;20036;-76
2023/03/07 01:14:03;;;;;;;8.43;5.07;;;;;;;;;;5052363;28;20036;-76
2023/03/07 01:16:30;;;;;;;7.10;4.90;;;;;;;;;;5045809;28;20039;-76
2023/03/07 01:18:58;;;;;;;7.33;4.80;;;;;;;;;;5054607;28;20093;-76
2023/03/07 01:21:26;;;;;;;7.07;4.87;;;;;;;;;;5039918;28;20094;-76
2023/03/07 01:23:56;;;;;;;7.80;5.30;;;;;;;;;;5051660;28;20020;-76
2023/03/07 01:26:24;;;;;;;8.80;5.00;;;;;;;;;;5040643;28;20025;-76
2023/03/07 01:28:51;;;;;;;9.70;4.83;;;;;;;;;;5036707;28;20037;-76
2023/03/07 01:31:17;;;;;;;7.00;5.10;;;;;;;;;;5054062;28;20119;-75
2023/03/07 01:33:43;;;;;;;6.67;4.93;;;;;;;;;;5054001;28;20089;-76
2023/03/07 01:36:19;;;;;;;8.23;4.77;;;;;;;;;;5036880;28;20792;-76
2023/03/07 01:38:48;;;;;;;7.47;5.13;;;;;;;;;;5052445;28;20071;-76
2023/03/07 01:41:15;;;;;;;7.17;5.30;;;;;;;;;;5053363;28;20046;-76
2023/03/07 01:43:41;;;;;;;7.23;4.60;;;;;;;;;;5036686;28;20032;-76
2023/03/07 01:46:16;;;;;;;7.17;5.13;;;;;;;;;;5046556;28;20068;-76
2023/03/07 01:49:02;;;;;;;7.93;5.37;;;;;;;;;;5053984;28;20152;-76
2023/03/07 01:51:28;;;;;;;7.37;5.23;;;;;;;;;;5055274;28;20036;-76
2023/03/07 01:53:56;;;;;;;6.40;4.63;;;;;;;;;;5039788;28;20051;-76
2023/03/07 01:56:25;;;;;;;9.27;5.37;;;;;;;;;;5054556;28;20182;-76
2023/03/07 01:58:51;;;;;;;6.60;4.47;;;;;;;;;;5054342;28;20350;-76
2023/03/07 02:01:21;;;;;;;9.30;5.73;;;;;;;;;;5055335;28;20047;-76
2023/03/07 02:03:47;;;;;;;8.63;6.17;;;;;;;;;;5041468;28;20047;-76
2023/03/07 02:06:13;;;;;;;7.93;5.70;;;;;;;;;;5057641;28;20037;-76
2023/03/07 02:08:40;;;;;;;6.43;4.70;;;;;;;;;;5044046;28;20036;-76
2023/03/07 02:11:06;;;;;;;8.60;5.47;;;;;;;;;;5058437;28;20036;-76
2023/03/07 02:13:32;;;;;;;7.60;5.53;;;;;;;;;;5057149;28;20041;-76
2023/03/07 02:16:00;;;;;;;8.77;5.67;;;;;;;;;;5057678;28;21614;-76
2023/03/07 02:18:30;;;;;;;8.40;5.47;;;;;;;;;;5039955;28;20028;-76
2023/03/07 02:21:03;;;;;;;8.27;5.80;;;;;;;;;;5055976;28;20089;-76
2023/03/07 02:23:48;;;;;;;8.93;6.23;;;;;;;;;;5049325;28;20668;-76
2023/03/07 02:26:25;;;;;;;9.13;6.40;;;;;;;;;;5056254;28;20028;-75
2023/03/07 02:28:52;;;;;;;9.80;5.97;;;;;;;;;;5040987;28;20032;-75
2023/03/07 02:31:18;;;;;;;9.07;6.17;;;;;;;;;;5043243;28;20060;-76
2023/03/07 02:33:44;;;;;;;8.27;6.13;;;;;;;;;;5058067;28;20037;-76
2023/03/07 02:36:27;;;;;;;11.23;6.10;;;;;;;;;;5042657;28;20029;-75
2023/03/07 02:38:54;;;;;;;9.80;6.93;;;;;;;;;;5056017;28;20044;-76
2023/03/07 02:41:21;;;;;;;9.73;6.60;;;;;;;;;;5048376;28;20032;-75
2023/03/07 02:43:47;;;;;;;8.40;6.37;;;;;;;;;;5071565;28;20028;-76
2023/03/07 02:46:13;;;;;;;10.40;7.60;;;;;;;;;;5068492;28;20036;-76
2023/03/07 02:48:39;;;;;;;9.80;6.70;;;;;;;;;;5060907;28;20426;-76
2023/03/07 02:51:05;;;;;;;11.23;6.93;;;;;;;;;;5062795;28;20028;-76
2023/03/07 02:53:34;;;;;;;9.17;6.07;;;;;;;;;;5048113;28;20477;-77
2023/03/07 02:56:00;;;;;;;9.47;6.17;;;;;;;;;;5059111;28;20400;-76
2023/03/07 02:58:28;;;;;;;10.00;6.90;;;;;;;;;;5069487;28;20083;-77
2023/03/07 03:00:56;;;;;;;8.77;6.63;;;;;;;;;;5073225;28;20032;-76
2023/03/07 03:03:22;;;;;;;7.97;6.07;;;;;;;;;;5062991;28;20033;-76
2023/03/07 03:05:48;;;;;;;10.30;6.93;;;;;;;;;;5059225;28;20024;-76
2023/03/07 03:08:14;;;;;;;10.20;6.80;;;;;;;;;;5049272;28;20040;-76
2023/03/07 03:10:40;;;;;;;9.53;6.60;;;;;;;;;;5068578;28;20112;-77
2023/03/07 03:13:06;;;;;;;7.70;6.43;;;;;;;;;;5071256;28;20040;-77
2023/03/07 03:15:32;;;;;;;8.73;6.67;;;;;;;;;;5058714;28;20449;-77
2023/03/07 03:17:58;;;;;;;7.97;5.70;;;;;;;;;;5076383;28;20029;-77
2023/03/07 03:20:26;;;;;;;8.73;6.03;;;;;;;;;;5066334;28;20055;-76
2023/03/07 03:22:52;;;;;;;7.83;5.77;;;;;;;;;;5047553;28;20086;-76
2023/03/07 03:25:23;;;;;;;8.03;5.77;;;;;;;;;;5075705;28;20342;-76
2023/03/07 03:27:49;;;;;;;8.83;5.70;;;;;;;;;;5058530;28;20036;-77
2023/03/07 03:30:18;;;;;;;9.70;5.77;;;;;;;;;;5061199;28;20038;-76
2023/03/07 03:32:46;;;;;;;8.87;6.03;;;;;;;;;;5049970;28;20021;-76
2023/03/07 03:35:12;;;;;;;8.57;6.67;;;;;;;;;;5076022;28;20349;-76
2023/03/07 03:37:38;;;;;;;9.80;7.23;;;;;;;;;;5065768;28;20120;-77
2023/03/07 03:40:12;;;;;;;9.50;6.97;;;;;;;;;;5058831;28;20399;-77
2023/03/07 03:42:38;;;;;;;9.67;6.90;;;;;;;;;;5058959;28;20036;-77
2023/03/07 03:45:05;;;;;;;9.17;6.50;;;;;;;;;;5060196;28;20029;-77
2023/03/07 03:47:31;;;;;;;12.37;6.50;;;;;;;;;;5067382;28;20036;-76
2023/03/07 03:49:57;;;;;;;11.03;6.33;;;;;;;;;;5076587;28;20024;-77
2023/03/07 03:52:23;;;;;;;13.47;7.33;;;;;;;;;;5057862;28;20043;-77
2023/03/07 03:54:49;;;;;;;14.07;8.23;;;;;;;;;;5056417;28;20028;-76
2023/03/07 03:57:17;;;;;;;11.10;7.40;;;;;;;;;;5053127;28;20135;-77
2023/03/07 03:59:43;;;;;;;13.33;7.70;;;;;;;;;;5057102;28;20432;-77
2023/03/07 04:02:10;;;;;;;10.50;7.27;;;;;;;;;;5074368;28;20021;-77
2023/03/07 04:04:38;;;;;;;14.43;8.30;;;;;;;;;;5057028;28;20031;-77
2023/03/07 04:07:05;;;;;;;10.50;7.73;;;;;;;;;;5074608;28;20471;-76
2023/03/07 04:09:31;;;;;;;13.43;8.60;;;;;;;;;;5074831;28;20399;-77
2023/03/07 04:11:57;;;;;;;12.47;8.73;;;;;;;;;;5074864;28;20067;-76
2023/03/07 04:14:23;;;;;;;12.93;7.90;;;;;;;;;;5054645;28;20036;-77
2023/03/07 04:16:49;;;;;;;14.57;8.03;;;;;;;;;;5057142;28;20024;-77
2023/03/07 04:19:17;;;;;;;12.77;7.70;;;;;;;;;;5039925;28;20032;-76
2023/03/07 04:21:43;;;;;;;13.33;7.90;;;;;;;;;;5040479;28;20068;-76
2023/03/07 04:24:10;;;;;;;14.37;8.53;;;;;;;;;;5039085;28;20025;-76
2023/03/07 04:26:36;;;;;;;13.60;8.17;;;;;;;;;;5044780;28;20040;-77
2023/03/07 04:29:05;;;;;;;12.17;8.03;;;;;;;;;;5044906;28;20029;-76
2023/03/07 04:31:31;;;;;;;15.37;8.63;;;;;;;;;;5053542;28;20036;-76
2023/03/07 04:33:59;;;;;;;11.57;8.07;;;;;;;;;;5055859;28;20036;-76
2023/03/07 04:36:25;;;;;;;13.50;8.80;;;;;;;;;;5051230;28;20048;-76
2023/03/07 04:38:51;;;;;;;13.17;9.13;;;;;;;;;;5050355;28;20089;-76
2023/03/07 04:41:21;;;;;;;13.93;8.80;;;;;;;;;;5041431;28;20036;-76
2023/03/07 04:43:47;;;;;;;12.67;9.27;;;;;;;;;;5038317;28;20028;-76
2023/03/07 04:46:14;;;;;;;15.37;8.37;;;;;;;;;;5055041;28;20497;-75
2023/03/07 04:48:40;;;;;;;12.80;8.83;;;;;;;;;;5041021;28;20450;-76
2023/03/07 04:51:07;;;;;;;14.87;9.50;;;;;;;;;;5043431;28;20036;-76
2023/03/07 04:53:33;;;;;;;13.67;9.00;;;;;;;;;;5037835;28;20024;-76
2023/03/07 04:55:59;;;;;;;17.23;9.30;;;;;;;;;;5040645;28;20105;-75
2023/03/07 04:58:26;;;;;;;14.33;9.03;;;;;;;;;;5038445;28;20040;-76
2023/03/07 05:00:52;;;;;;;14.13;9.77;;;;;;;;;;5040636;28;20690;-76
2023/03/07 05:03:18;;;;;;;14.77;8.70;;;;;;;;;;5037142;28;20116;-76
2023/03/07 05:05:44;;;;;;;14.37;9.70;;;;;;;;;;5045473;28;20029;-76
2023/03/07 05:08:10;;;;;;;14.33;9.23;;;;;;;;;;5055069;28;20040;-76
2023/03/07 05:10:36;;;;;;;15.20;10.20;;;;;;;;;;5053521;28;20475;-76
2023/03/07 05:13:02;;;;;;;15.23;9.83;;;;;;;;;;5054843;28;20155;-76
2023/03/07 05:15:31;;;;;;;16.90;10.03;;;;;;;;;;5052008;28;20024;-76
2023/03/07 05:17:57;;;;;;;19.87;11.60;;;;;;;;;;5040709;28;20048;-76
2023/03/07 05:20:23;;;;;;;18.17;10.63;;;;;;;;;;5037906;28;21591;-77
2023/03/07 05:22:49;;;;;;;17.47;10.80;;;;;;;;;;5035753;28;20036;-75
2023/03/07 05:25:15;;;;;;;17.20;11.20;;;;;;;;;;5035421;28;20411;-75
2023/03/07 05:27:41;;;;;;;17.40;11.03;;;;;;;;;;5037280;28;20032;-76
2023/03/07 05:30:08;;;;;;;20.27;10.90;;;;;;;;;;5036205;28;20033;-76
2023/03/07 05:32:34;;;;;;;16.70;11.10;;;;;;;;;;5052894;28;20041;-75
2023/03/07 05:35:00;;;;;;;17.33;11.20;;;;;;;;;;5056279;28;20044;-75
2023/03/07 05:37:26;;;;;;;18.97;12.40;;;;;;;;;;5039379;28;20040;-75
2023/03/07 05:39:52;;;;;;;21.83;11.33;;;;;;;;;;5056498;28;20075;-76
2023/03/07 05:42:18;;;;;;;17.80;11.57;;;;;;;;;;5060038;28;20032;-75
2023/03/07 05:44:44;;;;;;;21.37;13.57;;;;;;;;;;5059042;28;20465;-75
2023/03/07 05:47:10;;;;;;;17.07;11.37;;;;;;;;;;5038207;28;20402;-76
2023/03/07 05:49:36;;;;;;;17.13;11.03;;;;;;;;;;5046018;28;20039;-76
2023/03/07 05:52:02;;;;;;;16.73;11.27;;;;;;;;;;5038806;28;20053;-76
2023/03/07 05:54:28;;;;;;;17.30;11.33;;;;;;;;;;5056731;28;20059;-76
2023/03/07 05:56:54;;;;;;;17.00;11.00;;;;;;;;;;5046275;28;20029;-76
2023/03/07 05:59:20;;;;;;;17.47;11.83;;;;;;;;;;5039048;28;20064;-76
2023/03/07 06:01:46;;;;;;;14.77;9.43;;;;;;;;;;5056163;28;20099;-75
2023/03/07 06:04:12;;;;;;;19.60;11.37;;;;;;;;;;5038879;28;20116;-75
2023/03/07 06:06:38;;;;;;;22.20;11.53;;;;;;;;;;5047824;28;20048;-76
2023/03/07 06:09:04;;;;;;;17.53;11.73;;;;;;;;;;5041855;28;20025;-75
2023/03/07 06:11:31;;;;;;;18.40;10.53;;;;;;;;;;5042552;28;20037;-75
2023/03/07 06:13:59;;;;;;;18.07;10.13;;;;;;;;;;5054336;28;20457;-76
2023/03/07 06:16:25;;;;;;;20.03;11.30;;;;;;;;;;5056714;28;20384;-76
2023/03/07 06:18:52;;;;;;;17.20;10.87;;;;;;;;;;5057824;28;20028;-75
2023/03/07 06:21:18;;;;;;;21.67;11.53;;;;;;;;;;5038314;28;20119;-75
2023/03/07 06:23:44;;;;;;;14.90;10.67;;;;;;;;;;5055553;28;20079;-76
2023/03/07 06:26:11;;;;;;;19.57;10.73;;;;;;;;;;5040766;28;20043;-76
2023/03/07 06:28:38;;;;;;;15.90;10.53;;;;;;;;;;5046474;28;20155;-75
2023/03/07 06:31:08;;;;;;;15.83;10.60;;;;;;;;;;5044852;28;20207;-76
2023/03/07 06:33:34;;;;;;;15.70;9.97;;;;;;;;;;5038988;28;20123;-75
2023/03/07 06:36:03;;;;;;;17.13;10.40;;;;;;;;;;5037578;28;20037;-76
2023/03/07 06:38:29;;;;;;;17.47;10.43;;;;;;;;;;5038880;28;20180;-76
2023/03/07 06:40:55;;;;;;;18.70;10.17;;;;;;;;;;5056181;28;20040;-76
2023/03/07 06:43:21;;;;;;;19.67;11.07;;;;;;;;;;5053194;28;20033;-76
2023/03/07 06:45:47;;;;;;;20.47;10.53;;;;;;;;;;5045109;28;20036;-75
2023/03/07 06:48:13;;;;;;;14.70;10.63;;;;;;;;;;5037560;28;20024;-76
2023/03/07 06:50:39;;;;;;;18.43;10.90;;;;;;;;;;5054961;28;20119;-75
2023/03/07 06:53:05;;;;;;;16.30;10.37;;;;;;;;;;5040619;28;20047;-76
2023/03/07 06:55:31;;;;;;;15.93;10.70;;;;;;;;;;5036727;28;20123;-75
2023/03/07 06:57:57;;;;;;;19.57;11.10;;;;;;;;;;5037919;28;20036;-75
2023/03/07 07:00:26;;;;;;;18.40;11.07;;;;;;;;;;5046607;28;20047;-76
2023/03/07 07:02:54;;;;;;;17.73;10.47;;;;;;;;;;5054271;28;20033;-76
2023/03/07 07:05:20;;;;;;;16.83;9.93;;;;;;;;;;5041258;28;20029;-76
2023/03/07 07:07:46;;;;;;;22.53;11.97;;;;;;;;;;5054732;28;20070;-76
2023/03/07 07:10:12;;;;;;;15.47;9.30;;;;;;;;;;5053831;28;20129;-75
2023/03/07 07:12:41;;;;;;;13.67;8.80;;;;;;;;;;5038408;28;20673;-76
2023/03/07 07:15:07;;;;;;;15.70;9.67;;;;;;;;;;5037890;28;20033;-74
2023/03/07 07:17:39;;;;;;;13.40;9.30;;;;;;;;;;5053678;28;20465;-76
2023/03/07 07:20:06;;;;;;;16.25;9.73;;;;;;;;;;5040599;28;20346;-76
2023/03/07 07:22:32;;;;;;;14.50;9.00;;;;;;;;;;5043945;28;20036;-76
2023/03/07 07:24:58;;;;;;;19.57;10.20;;;;;;;;;;5041236;28;20426;-76
2023/03/07 07:27:24;;;;;;;13.37;8.53;;;;;;;;;;5057930;28;20107;-76
2023/03/07 07:29:51;;;;;;;12.13;8.00;;;;;;;;;;5057034;28;20016;-76
2023/03/07 07:32:17;;;;;;;11.00;7.97;;;;;;;;;;5055396;28;20032;-77
2023/03/07 07:34:43;;;;;;;12.33;7.20;;;;;;;;;;5054915;28;20040;-76
2023/03/07 07:37:09;;;;;;;10.63;7.03;;;;;;;;;;5041107;28;20094;-76
2023/03/07 07:39:35;;;;;;;13.23;8.33;;;;;;;;;;5052597;28;20040;-75
2023/03/07 07:42:03;;;;;;;13.53;7.30;;;;;;;;;;5038394;28;20041;-76
2023/03/07 07:44:29;;;;;;;10.73;7.40;;;;;;;;;;5036626;28;20033;-76
2023/03/07 07:46:56;;;;;;;10.40;7.40;;;;;;;;;;5053228;28;20033;-75
2023/03/07 07:49:22;;;;;;;12.10;8.27;;;;;;;;;;5038674;28;20081;-76
2023/03/07 07:51:48;;;;;;;10.53;6.83;;;;;;;;;;5054249;28;20029;-76
2023/03/07 07:54:14;;;;;;;12.57;7.30;;;;;;;;;;5052044;28;20480;-76
2023/03/07 07:56:40;;;;;;;11.07;7.30;;;;;;;;;;5055699;28;20028;-76
2023/03/07 07:59:06;;;;;;;11.20;6.47;;;;;;;;;;5053377;28;20025;-76
2023/03/07 08:01:34;;;;;;;10.37;6.63;;;;;;;;;;5056537;28;20110;-76
2023/03/07 08:04:00;;;;;;;13.73;5.90;;;;;;;;;;5037494;28;20067;-76
2023/03/07 08:06:27;;;;;;;10.30;6.33;;;;;;;;;;5053019;28;20053;-75
2023/03/07 08:08:53;;;;;;;9.43;6.40;;;;;;;;;;5035985;28;20572;-74
2023/03/07 08:11:20;;;;;;;8.70;6.07;;;;;;;;;;5039945;28;20060;-76
2023/03/07 08:13:46;;;;;;;9.00;6.57;;;;;;;;;;5053629;28;20041;-76
2023/03/07 08:16:17;;;;;;;8.03;5.43;;;;;;;;;;5053789;28;20033;-76
2023/03/07 08:18:47;;;;;;;10.97;7.00;;;;;;;;;;5054202;28;20036;-75
2023/03/07 08:21:13;;;;;;;14.07;5.57;;;;;;;;;;5034853;28;20029;-76
2023/03/07 08:23:39;;;;;;;8.87;5.93;;;;;;;;;;5052016;28;20035;-76
2023/03/07 08:26:07;;;;;;;10.23;4.97;;;;;;;;;;5054762;28;20033;-76
2023/03/07 08:28:37;;;;;;;8.50;5.47;;;;;;;;;;5045678;28;20094;-76
2023/03/07 08:31:13;;;;;;;9.93;5.23;;;;;;;;;;5038091;28;20174;-76
2023/03/07 08:33:39;;;;;;;9.30;5.40;;;;;;;;;;5046037;28;20671;-76
2023/03/07 08:36:06;;;;;;;6.33;4.77;;;;;;;;;;5040695;28;20830;-76
2023/03/07 08:38:32;;;;;;;7.73;5.23;;;;;;;;;;5036995;28;20029;-76
2023/03/07 08:41:02;;;;;;;9.20;5.47;;;;;;;;;;5055275;28;20040;-76
2023/03/07 08:43:30;;;;;;;7.73;5.33;;;;;;;;;;5061776;28;20421;-76
2023/03/07 08:45:56;;;;;;;7.20;4.50;;;;;;;;;;5056287;28;20032;-76
2023/03/07 08:48:22;;;;;;;7.73;5.03;;;;;;;;;;5056343;28;20025;-76
2023/03/07 08:50:48;;;;;;;9.13;4.60;;;;;;;;;;5043380;28;20028;-76
2023/03/07 08:53:14;;;;;;;8.30;5.00;;;;;;;;;;5058271;28;20032;-76
2023/03/07 08:55:42;;;;;;;5.80;4.60;;;;;;;;;;5056188;28;20036;-76
2023/03/07 08:58:08;;;;;;;8.87;4.90;;;;;;;;;;5048884;28;20057;-75
2023/03/07 09:00:34;;;;;;;8.53;4.83;;;;;;;;;;5056353;28;20119;-75
2023/03/07 09:03:00;;;;;;;7.93;4.80;;;;;;;;;;5050972;28;20100;-76
2023/03/07 09:05:27;;;;;;;7.10;5.13;;;;;;;;;;5044073;28;20025;-76
2023/03/07 09:07:53;;;;;;;8.67;5.80;;;;;;;;;;5053603;28;20036;-76
2023/03/07 09:10:19;;;;;;;7.80;5.03;;;;;;;;;;5055659;28;20025;-75
2023/03/07 09:12:46;;;;;;;7.77;5.23;;;;;;;;;;5055308;28;20054;-76
2023/03/07 09:15:12;;;;;;;11.17;5.43;;;;;;;;;;5073565;28;20052;-76
2023/03/07 09:17:38;;;;;;;11.37;6.17;;;;;;;;;;5073351;28;20021;-76
2023/03/07 09:20:05;;;;;;;8.77;5.80;;;;;;;;;;5053315;28;20032;-76
2023/03/07 09:22:31;;;;;;;8.17;5.90;;;;;;;;;;5055409;28;20029;-76
2023/03/07 09:24:57;;;;;;;15.20;6.80;;;;;;;;;;5052404;28;20029;-76
2023/03/07 09:27:23;;;;;;;9.37;6.87;;;;;;;;;;5062381;28;20384;-76
2023/03/07 09:29:50;;;;;;;9.57;6.23;;;;;;;;;;5055753;28;20025;-76
2023/03/07 09:32:16;;;;;;;10.60;7.07;;;;;;;;;;5063585;28;20028;-76
2023/03/07 09:34:42;;;;;;;13.07;6.60;;;;;;;;;;5055677;28;20029;-76
2023/03/07 09:37:07;;;;;;;11.43;7.47;;;;;;;;;;5055822;28;20028;-76
2023/03/07 09:39:38;;;;;;;11.00;7.10;;;;;;;;;;5065196;28;20037;-76
2023/03/07 09:42:04;;;;;;;11.90;7.13;;;;;;;;;;5039467;28;20361;-76
2023/03/07 09:44:30;;;;;;;15.80;7.27;;;;;;;;;;5054645;28;20066;-76
2023/03/07 09:47:15;;;;;;;9.53;6.43;;;;;;;;;;5054628;28;20059;-76
2023/03/07 09:49:44;;;;;;;13.77;7.60;;;;;;;;;;5048093;28;20028;-76
2023/03/07 09:52:13;;;;;;;12.13;7.67;;;;;;;;;;5044828;28;20489;-76
2023/03/07 09:54:52;;;;;;;11.50;7.80;;;;;;;;;;5070178;28;20029;-76
2023/03/07 09:57:22;;;;;;;13.87;7.27;;;;;;;;;;5054926;28;20037;-76
2023/03/07 09:59:49;;;;;;;9.73;7.17;;;;;;;;;;5054824;28;20127;-76
2023/03/07 10:02:15;;;;;;;16.47;8.10;;;;;;;;;;5054814;28;20033;-76
2023/03/07 10:05:00;;;;;;;12.70;7.93;;;;;;;;;;5057970;28;20404;-76
2023/03/07 10:07:26;;;;;;;12.37;7.17;;;;;;;;;;5055030;28;20465;-76
2023/03/07 10:10:04;;;;;;;11.43;7.43;;;;;;;;;;5055105;28;20025;-77
2023/03/07 10:12:36;;;;;;;14.10;7.70;;;;;;;;;;5055519;28;20040;-76
2023/03/07 10:15:02;;;;;;;15.45;8.65;;;;;;;;;;5054778;28;20043;-76
2023/03/07 10:17:34;;;;;;;10.93;6.87;;;;;;;;;;5061337;28;20036;-76
2023/03/07 10:20:20;;;;;;;11.03;7.67;;;;;;;;;;5054804;28;21607;-76
2023/03/07 10:22:49;;;;;;;9.80;6.10;;;;;;;;;;5044245;28;20457;-76
2023/03/07 10:25:27;;;;;;;11.43;7.17;;;;;;;;;;5057636;28;20098;-76
2023/03/07 10:27:58;;;;;;;9.57;5.20;;;;;;;;;;5048670;28;20029;-75
2023/03/07 10:30:24;;;;;;;9.47;5.83;;;;;;;;;;5056315;28;20060;-76
2023/03/07 10:32:52;;;;;;;10.73;6.43;;;;;;;;;;5054677;28;20511;-76
2023/03/07 10:35:20;;;;;;;10.67;7.23;;;;;;;;;;5058084;28;20036;-77
2023/03/07 10:37:49;;;;;;;8.30;6.17;;;;;;;;;;5037185;28;20033;-75
2023/03/07 10:40:17;;;;;;;8.67;5.87;;;;;;;;;;5058279;28;20109;-76
2023/03/07 10:42:43;;;;;;;9.07;6.23;;;;;;;;;;5057013;28;20044;-75
2023/03/07 10:45:15;;;;;;;12.27;6.67;;;;;;;;;;5057663;28;20028;-76
2023/03/07 10:47:42;;;;;;;14.48;7.00;;;;;;;;;;5039714;28;20435;-76
2023/03/07 10:50:28;;;;;;;10.33;6.53;;;;;;;;;;5038431;28;20100;-76
2023/03/07 10:52:58;;;;;;;10.03;6.20;;;;;;;;;;5040463;28;20024;-76
2023/03/07 10:55:33;;;;;;;9.73;6.57;;;;;;;;;;5055895;28;20037;-76
2023/03/07 10:58:18;;;;;;;11.87;7.47;;;;;;;;;;5038672;28;20033;-75
2023/03/07 11:00:45;;;;;;;13.13;6.87;;;;;;;;;;5056805;28;20029;-76
2023/03/07 11:03:37;;;;;;;9.80;6.67;;;;;;;;;;5055805;28;20060;-76
2023/03/07 11:06:04;;;;;;;12.45;8.25;;;;;;;;;;5005510;28;20029;-76
2023/03/07 11:08:36;;;;;;;11.13;6.87;;;;;;;;;;5037751;28;20025;-76
2023/03/07 11:11:04;;;;;;;9.95;7.32;;;;;;;;;;5038237;28;20056;-76
2023/03/07 11:13:33;;;;;;;10.33;7.17;;;;;;;;;;5038563;28;20041;-76
2023/03/07 11:16:17;;;;;;;13.33;8.20;;;;;;;;;;5038662;28;20056;-76
2023/03/07 11:18:43;;;;;;;13.60;8.07;;;;;;;;;;5042622;28;20035;-75
2023/03/07 11:21:30;;;;;;;16.13;8.70;;;;;;;;;;5037700;28;20032;-76
2023/03/07 11:24:15;;;;;;;14.07;8.73;;;;;;;;;;5055338;28;20032;-77
2023/03/07 11:26:41;;;;;;;17.37;8.70;;;;;;;;;;5047400;28;20024;-76
2023/03/07 11:29:14;;;;;;;13.27;8.63;;;;;;;;;;5038742;28;20116;-76
2023/03/07 11:31:43;;;;;;;12.63;8.30;;;;;;;;;;5042312;28;20634;-75
2023/03/07 11:34:35;;;;;;;14.27;7.87;;;;;;;;;;5053866;28;20086;-76
2023/03/07 11:37:10;;;;;;;18.27;8.45;;;;;;;;;;5027317;28;20110;-76
2023/03/07 11:39:45;;;;;;;17.40;9.57;;;;;;;;;;5058903;28;20041;-76
2023/03/07 11:42:23;;;;;;;16.03;9.60;;;;;;;;;;5047137;28;20216;-76
2023/03/07 11:44:52;;;;;;;17.90;9.37;;;;;;;;;;5054255;28;20425;-76
2023/03/07 11:47:18;;;;;;;16.40;8.67;;;;;;;;;;5036725;28;20037;-76
2023/03/07 11:49:56;;;;;;;15.73;10.83;;;;;;;;;;5047758;28;20032;-76
2023/03/07 11:52:31;;;;;;;13.30;8.70;;;;;;;;;;5039939;28;20110;-76
2023/03/07 11:55:00;;;;;;;10.77;7.03;;;;;;;;;;5056092;28;20035;-77
2023/03/07 11:57:26;;;;;;;12.33;7.40;;;;;;;;;;5036446;28;20474;-76
2023/03/07 12:00:14;;;;;;;11.27;7.10;;;;;;;;;;5058239;28;20129;-76
2023/03/07 12:02:59;;;;;;;15.07;8.50;;;;;;;;;;5055997;28;20039;-75
2023/03/07 12:05:36;;;;;;;11.07;8.10;;;;;;;;;;5057742;28;20082;-77
2023/03/07 12:08:20;;;;;;;9.40;6.10;;;;;;;;;;5055991;28;20032;-77
2023/03/07 12:10:46;;;;;;;12.70;7.77;;;;;;;;;;5055734;28;20025;-77
2023/03/07 12:13:26;;;;;;;13.13;6.57;;;;;;;;;;5058323;28;20509;-78
2023/03/07 12:16:11;;;;;;;19.07;7.83;;;;;;;;;;5050561;28;20039;-77
2023/03/07 12:18:42;;;;;;;10.10;6.63;;;;;;;;;;5056651;28;20032;-78
2023/03/07 12:21:14;;;;;;;16.43;8.50;;;;;;;;;;5059049;28;20491;-77
2023/03/07 12:23:47;;;;;;;13.07;7.07;;;;;;;;;;5057909;28;20044;-77
2023/03/07 12:26:16;;;;;;;14.57;7.95;;;;;;;;;;5059320;28;20037;-77
2023/03/07 12:28:47;;;;;;;31.43;10.00;;;;;;;;;;5049431;28;20092;-78
2023/03/07 12:31:13;;;;;;;12.73;7.97;;;;;;;;;;5059415;28;20060;-77
2023/03/07 12:33:48;;;;;;;9.17;6.37;;;;;;;;;;5042024;28;20037;-76
2023/03/07 12:36:23;;;;;;;12.17;8.30;;;;;;;;;;5041013;28;20043;-77
2023/03/07 12:38:55;;;;;;;6.13;4.23;;;;;;;;;;5041838;28;20040;-77
2023/03/07 12:41:39;;;;;;;6.07;4.73;;;;;;;;;;5059292;28;22065;-76
2023/03/07 12:44:10;;;;;;;7.20;5.37;;;;;;;;;;5043749;28;20036;-77
2023/03/07 12:46:40;;;;;;;6.27;4.77;;;;;;;;;;5042672;28;20063;-76
2023/03/07 12:49:21;;;;;;;4.70;3.70;;;;;;;;;;5040136;28;20039;-76
2023/03/07 12:52:02;;;;;;;8.07;4.30;;;;;;;;;;5050998;28;20170;-76
2023/03/07 12:54:36;;;;;;;6.13;4.10;;;;;;;;;;5056339;28;20029;-75
2023/03/07 12:57:17;;;;;;;6.77;4.20;;;;;;;;;;5044637;28;20290;-77
2023/03/07 12:59:43;;;;;;;5.07;3.63;;;;;;;;;;5043024;28;20032;-76
2023/03/07 13:02:29;;;;;;;6.43;2.90;;;;;;;;;;5039354;28;20032;-77
2023/03/07 13:04:56;;;;;;;10.60;2.90;;;;;;;;;;5056123;28;20060;-77
2023/03/07 13:07:25;;;;;;;3.17;2.03;;;;;;;;;;5057987;28;20365;-77
2023/03/07 13:09:53;;;;;;;2.83;2.23;;;;;;;;;;5040007;28;20465;-76
2023/03/07 13:12:28;;;;;;;3.50;2.63;;;;;;;;;;5040788;28;20298;-76
2023/03/07 13:14:54;;;;;;;3.90;2.40;;;;;;;;;;5055044;28;20279;-76
2023/03/07 13:17:29;;;;;;;9.80;3.10;;;;;;;;;;5059551;28;20603;-77
2023/03/07 13:19:56;;;;;;;4.77;2.90;;;;;;;;;;5041977;28;20276;-77
2023/03/07 13:22:22;;;;;;;3.17;2.33;;;;;;;;;;5039697;28;20059;-76
2023/03/07 13:24:49;;;;;;;2.83;2.17;;;;;;;;;;5054611;28;20445;-77
2023/03/07 13:27:23;;;;;;;4.33;2.20;;;;;;;;;;5044590;28;20047;-76
2023/03/07 13:30:07;;;;;;;2.27;1.50;;;;;;;;;;5056315;28;20275;-76
2023/03/07 13:32:51;;;;;;;1.97;1.30;;;;;;;;;;5060244;28;20743;-77
2023/03/07 13:35:32;;;;;;;4.63;1.93;;;;;;;;;;5047800;28;20285;-77
2023/03/07 13:37:58;;;;;;;5.37;2.97;;;;;;;;;;5056386;28;20283;-77
2023/03/07 13:40:43;;;;;;;4.50;2.40;;;;;;;;;;5054919;28;21892;-76
2023/03/07 13:43:18;;;;;;;5.47;2.90;;;;;;;;;;5047917;28;20274;-77
2023/03/07 13:45:59;;;;;;;2.73;2.20;;;;;;;;;;5040354;28;20362;-77
2023/03/07 13:50:54;;;;;;;9.07;3.57;;;;;;;;;;5058038;28;20282;-76
2023/03/07 13:53:32;;;;;;;4.80;3.57;;;;;;;;;;5040664;28;20033;-76
2023/03/07 13:56:08;;;;;;;3.07;1.63;;;;;;;;;;5042874;28;20040;-77
2023/03/07 13:58:37;;;;;;;1.80;1.57;;;;;;;;;;5053433;28;20603;-76
2023/03/07 14:01:04;;;;;;;3.53;2.30;;;;;;;;;;5042335;28;20275;-76
2023/03/07 14:03:31;;;;;;;4.50;2.80;;;;;;;;;;5061249;28;20286;-76
2023/03/07 14:06:02;;;;;;;5.13;2.60;;;;;;;;;;5043720;28;20929;-76
2023/03/07 14:08:33;;;;;;;3.47;2.87;;;;;;;;;;5060692;28;20317;-76
2023/03/07 14:10:59;;;;;;;3.43;3.00;;;;;;;;;;5046556;28;20283;-77
2023/03/07 14:13:34;;;;;;;4.13;3.23;;;;;;;;;;5058926;28;20279;-76
2023/03/07 14:16:06;;;;;;;5.67;4.23;;;;;;;;;;5060032;28;20351;-76
2023/03/07 14:18:54;;;;;;;5.85;4.05;;;;;;;;;;5042051;28;20303;-77
2023/03/07 14:21:29;;;;;;;6.40;4.47;;;;;;;;;;5041036;28;20110;-76
2023/03/07 14:24:20;;;;;;;6.77;4.30;;;;;;;;;;5043119;28;20279;-76
2023/03/07 14:26:49;;;;;;;7.40;4.63;;;;;;;;;;5033239;28;20326;-76
2023/03/07 14:29:21;;;;;;;8.33;5.70;;;;;;;;;;5060760;28;20271;-76
2023/03/07 14:31:51;;;;;;;9.23;6.65;;;;;;;;;;5060842;28;20308;-76
2023/03/07 14:34:20;;;;;;;9.07;6.40;;;;;;;;;;5050491;28;20121;-76
2023/03/07 14:36:58;;;;;;;10.10;6.50;;;;;;;;;;5046179;28;20287;-76
2023/03/07 14:39:25;;;;;;;9.90;7.40;;;;;;;;;;5059532;28;20283;-76
2023/03/07 14:42:10;;;;;;;14.17;9.00;;;;;;;;;;5061324;28;20750;-77
2023/03/07 14:44:36;;;;;;;11.60;8.07;;;;;;;;;;5066036;28;20358;-76
2023/03/07 14:47:21;;;;;;;15.53;9.13;;;;;;;;;;5072235;28;20349;-76